createdAt,value
2023-02-26T18:51:12.968Z,7.00
2023-02-26T18:52:16.141Z,4.57
2023-02-26T18:53:19.438Z,5.86
2023-02-26T18:54:22.498Z,6.71
2023-02-26T18:55:25.915Z,6.29
2023-02-26T18:56:29.046Z,6.86
2023-02-26T18:57:32.346Z,7.57
2023-02-26T18:58:35.857Z,7.57
2023-02-26T18:59:39.013Z,7.43
2023-02-26T19:00:42.169Z,7.29
2023-02-26T19:01:45.562Z,7.00
2023-02-26T19:02:48.801Z,6.57
2023-02-26T19:03:52.257Z,5.86
2023-02-26T19:04:55.644Z,6.29
2023-02-26T19:05:59.775Z,7.00
2023-02-26T19:07:03.129Z,7.00
2023-02-26T19:08:06.442Z,6.67
2023-02-26T19:09:09.694Z,7.00
2023-02-26T19:10:13.122Z,6.29
2023-02-26T19:11:16.573Z,7.43
2023-02-26T19:12:20.457Z,7.50
2023-02-26T19:13:24.007Z,6.71
2023-02-26T19:14:27.354Z,7.00
2023-02-26T19:15:31.230Z,7.00
2023-02-26T19:16:34.589Z,7.71
2023-02-26T19:17:37.927Z,7.00
2023-02-26T19:18:41.109Z,8.00
2023-02-26T19:19:44.391Z,9.29
2023-02-26T19:20:47.777Z,7.57
2023-02-26T19:21:51.021Z,6.00
2023-02-26T19:22:54.134Z,6.00
2023-02-26T19:23:57.421Z,6.71
2023-02-26T19:25:00.615Z,7.00
2023-02-26T19:26:03.785Z,7.71
2023-02-26T19:27:06.870Z,8.00
2023-02-26T19:28:10.250Z,7.57
2023-02-26T19:29:13.350Z,6.00
2023-02-26T19:30:16.429Z,6.29
2023-02-26T19:31:19.637Z,7.33
2023-02-26T19:32:22.995Z,7.67
2023-02-26T19:33:26.373Z,7.00
2023-02-26T19:34:29.556Z,7.14
2023-02-26T19:35:32.615Z,5.71
2023-02-26T19:36:35.710Z,7.50
2023-02-26T19:37:38.888Z,7.50
2023-02-26T19:38:42.085Z,7.29
2023-02-26T19:39:45.368Z,7.57
2023-02-26T19:40:48.442Z,7.00
2023-02-26T19:41:51.527Z,7.00
2023-02-26T19:42:54.589Z,7.43
2023-02-26T19:43:57.770Z,7.00
2023-02-26T19:45:01.170Z,6.00
2023-02-26T19:46:04.384Z,7.57
2023-02-26T19:47:08.048Z,7.00
2023-02-26T19:48:11.332Z,6.86
2023-02-26T19:49:14.918Z,7.86
2023-02-26T19:50:18.313Z,8.00
2023-02-26T19:51:22.944Z,7.57
2023-02-26T19:52:26.310Z,6.62
2023-02-26T19:53:30.511Z,6.29
2023-02-26T19:54:34.714Z,6.25
2023-02-26T19:55:38.514Z,6.62
2023-02-26T19:56:41.815Z,7.00
2023-02-26T19:57:44.876Z,7.29
2023-02-26T19:58:48.056Z,6.14
2023-02-26T19:59:51.105Z,7.50
2023-02-26T20:00:54.529Z,7.43
2023-02-26T20:01:57.798Z,6.00
2023-02-26T20:03:00.806Z,6.00
2023-02-26T20:04:04.180Z,5.43
2023-02-26T20:05:07.600Z,6.43
2023-02-26T20:06:10.840Z,6.57
2023-02-26T20:07:14.438Z,5.57
2023-02-26T20:08:18.055Z,5.71
2023-02-26T20:09:21.321Z,7.14
2023-02-26T20:10:24.516Z,6.00
2023-02-26T20:11:28.187Z,6.29
2023-02-26T20:12:31.880Z,5.50
2023-02-26T20:13:35.185Z,5.43
2023-02-26T20:14:38.450Z,6.00
2023-02-26T20:15:41.838Z,6.29
2023-02-26T20:16:45.641Z,5.57
2023-02-26T20:17:48.918Z,6.86
2023-02-26T20:18:52.189Z,6.71
2023-02-26T20:19:55.601Z,5.43
2023-02-26T20:20:58.998Z,5.43
2023-02-26T20:22:02.149Z,5.14
2023-02-26T20:23:05.658Z,5.57
2023-02-26T20:24:09.282Z,5.57
2023-02-26T20:25:12.612Z,4.87
2023-02-26T20:26:16.118Z,5.71
2023-02-26T20:27:19.298Z,5.29
2023-02-26T20:28:22.692Z,4.00
2023-02-26T20:29:25.972Z,5.00
2023-02-26T20:30:29.485Z,7.00
2023-02-26T20:31:32.839Z,5.86
2023-02-26T20:32:36.449Z,5.14
2023-02-26T20:33:39.935Z,4.50
2023-02-26T20:34:43.313Z,4.43
2023-02-26T20:35:46.795Z,4.43
2023-02-26T20:36:50.181Z,4.00
2023-02-26T20:37:53.490Z,4.33
2023-02-26T20:38:56.673Z,4.57
2023-02-26T20:40:00.047Z,4.00
2023-02-26T20:41:03.355Z,3.86
2023-02-26T20:42:06.650Z,3.71
2023-02-26T20:43:09.718Z,4.00
2023-02-26T20:44:13.004Z,4.33
2023-02-26T20:45:16.347Z,5.43
2023-02-26T20:46:19.570Z,5.00
2023-02-26T20:47:22.821Z,4.00
2023-02-26T20:48:26.530Z,4.43
2023-02-26T20:49:30.229Z,4.00
2023-02-26T20:50:33.690Z,3.75
2023-02-26T20:51:36.758Z,3.43
2023-02-26T20:52:39.707Z,2.67
2023-02-26T20:53:42.733Z,3.67
2023-02-26T20:54:46.064Z,3.43
2023-02-26T20:55:49.514Z,3.71
2023-02-26T20:56:53.303Z,3.57
2023-02-26T20:57:56.804Z,3.86
2023-02-26T20:59:00.280Z,3.71
2023-02-26T21:00:03.674Z,4.00
2023-02-26T21:01:07.077Z,3.43
2023-02-26T21:02:10.360Z,3.14
2023-02-26T21:03:13.816Z,3.14
2023-02-26T21:04:17.338Z,4.00
2023-02-26T21:05:20.704Z,3.43
2023-02-26T21:06:24.208Z,4.43
2023-02-26T21:07:27.573Z,4.50
2023-02-26T21:08:31.078Z,2.14
2023-02-26T21:09:34.356Z,2.86
2023-02-26T21:10:37.750Z,4.29
2023-02-26T21:11:41.034Z,4.43
2023-02-26T21:12:44.417Z,3.14
2023-02-26T21:13:47.986Z,3.43
2023-02-26T21:14:51.337Z,3.43
2023-02-26T21:15:54.569Z,4.00
2023-02-26T21:16:58.150Z,3.00
2023-02-26T21:18:01.348Z,4.00
2023-02-26T21:19:04.629Z,3.86
2023-02-26T21:20:07.898Z,3.57
2023-02-26T21:21:11.395Z,3.00
2023-02-26T21:22:14.670Z,2.71
2023-02-26T21:23:17.958Z,3.00
2023-02-26T21:24:21.241Z,2.29
2023-02-26T21:25:24.759Z,2.00
2023-02-26T21:26:28.115Z,2.29
2023-02-26T21:27:31.518Z,3.29
2023-02-26T21:28:34.795Z,4.43
2023-02-26T21:29:38.207Z,3.71
2023-02-26T21:30:41.577Z,2.71
2023-02-26T21:31:44.882Z,1.86
2023-02-26T21:32:48.231Z,3.43
2023-02-26T21:33:51.624Z,3.14
2023-02-26T21:34:55.005Z,2.43
2023-02-26T21:35:58.502Z,2.71
2023-02-26T21:37:01.572Z,2.86
2023-02-26T21:38:04.981Z,2.57
2023-02-26T21:39:08.146Z,2.43
2023-02-26T21:40:11.531Z,3.00
2023-02-26T21:41:14.943Z,2.00
2023-02-26T21:42:18.099Z,1.86
2023-02-26T21:43:21.590Z,2.14
2023-02-26T21:44:24.884Z,2.86
2023-02-26T21:45:28.466Z,3.00
2023-02-26T21:46:31.707Z,3.43
2023-02-26T21:47:35.134Z,3.43
2023-02-26T21:48:38.534Z,3.14
2023-02-26T21:49:42.623Z,3.29
2023-02-26T21:50:47.356Z,2.87
2023-02-26T21:51:50.844Z,3.50
2023-02-26T21:52:54.317Z,3.00
2023-02-26T21:53:57.297Z,4.29
2023-02-26T21:55:00.405Z,3.57
2023-02-26T21:56:03.664Z,2.33
2023-02-26T21:57:06.750Z,2.83
2023-02-26T21:58:10.025Z,3.00
2023-02-26T21:59:12.965Z,3.83
2023-02-26T22:00:15.993Z,3.00
2023-02-26T22:01:19.186Z,3.86
2023-02-26T22:02:22.378Z,4.00
2023-02-26T22:03:25.425Z,3.57
2023-02-26T22:04:28.714Z,3.43
2023-02-26T22:05:31.798Z,4.14
2023-02-26T22:06:34.846Z,4.00
2023-02-26T22:07:37.940Z,4.33
2023-02-26T22:08:41.169Z,3.43
2023-02-26T22:09:45.599Z,4.29
2023-02-26T22:10:49.126Z,2.75
2023-02-26T22:11:52.642Z,3.25
2023-02-26T22:12:56.213Z,3.00
2023-02-26T22:13:59.299Z,3.00
2023-02-26T22:15:02.486Z,3.00
2023-02-26T22:16:05.866Z,2.86
2023-02-26T22:17:09.358Z,3.33
2023-02-26T22:18:12.829Z,4.00
2023-02-26T22:19:16.217Z,3.71
2023-02-26T22:20:19.550Z,3.00
2023-02-26T22:21:23.013Z,3.00
2023-02-26T22:22:26.300Z,2.57
2023-02-26T22:23:29.792Z,2.71
2023-02-26T22:24:33.364Z,3.43
2023-02-26T22:25:36.960Z,3.71
2023-02-26T22:26:40.450Z,3.71
2023-02-26T22:27:43.652Z,3.00
2023-02-26T22:28:47.052Z,2.83
2023-02-26T22:29:50.512Z,2.71
2023-02-26T22:30:53.948Z,2.71
2023-02-26T22:31:57.341Z,2.57
2023-02-26T22:33:00.769Z,3.14
2023-02-26T22:34:04.278Z,3.57
2023-02-26T22:35:07.886Z,3.57
2023-02-26T22:36:11.039Z,2.62
2023-02-26T22:37:14.308Z,2.14
2023-02-26T22:38:17.806Z,3.14
2023-02-26T22:39:21.192Z,3.43
2023-02-26T22:40:24.679Z,3.00
2023-02-26T22:41:28.060Z,3.14
2023-02-26T22:42:31.450Z,3.43
2023-02-26T22:43:34.841Z,2.43
2023-02-26T22:44:38.219Z,2.86
2023-02-26T22:45:41.424Z,3.00
2023-02-26T22:46:44.688Z,2.67
2023-02-26T22:47:47.772Z,2.14
2023-02-26T22:48:50.844Z,3.00
2023-02-26T22:49:53.909Z,3.00
2023-02-26T22:50:57.240Z,2.67
2023-02-26T22:52:00.499Z,2.57
2023-02-26T22:53:03.411Z,3.00
2023-02-26T22:54:06.755Z,2.83
2023-02-26T22:55:10.454Z,2.86
2023-02-26T22:56:14.152Z,2.86
2023-02-26T22:57:17.535Z,3.00
2023-02-26T22:58:20.935Z,3.43
2023-02-26T22:59:24.119Z,3.57
2023-02-26T23:00:27.305Z,3.00
2023-02-26T23:01:30.875Z,2.71
2023-02-26T23:02:34.174Z,3.37
2023-02-26T23:03:37.553Z,3.33
2023-02-26T23:04:40.871Z,4.00
2023-02-26T23:05:44.478Z,3.57
2023-02-26T23:06:47.500Z,3.14
2023-02-26T23:07:50.965Z,3.50
2023-02-26T23:08:54.383Z,3.00
2023-02-26T23:09:57.981Z,3.57
2023-02-26T23:11:01.259Z,3.00
2023-02-26T23:12:04.661Z,3.29
2023-02-26T23:13:07.742Z,2.67
2023-02-26T23:14:11.014Z,2.00
2023-02-26T23:15:14.500Z,2.14
2023-02-26T23:16:17.884Z,3.00
2023-02-26T23:17:20.869Z,3.00
2023-02-26T23:18:24.091Z,2.86
2023-02-26T23:19:27.223Z,2.57
2023-02-26T23:20:30.205Z,2.71
2023-02-26T23:21:33.308Z,3.43
2023-02-26T23:22:36.366Z,4.33
2023-02-26T23:23:39.538Z,3.00
2023-02-26T23:24:43.010Z,3.33
2023-02-26T23:25:46.006Z,3.17
2023-02-26T23:26:48.981Z,2.67
2023-02-26T23:27:52.059Z,2.71
2023-02-26T23:28:55.256Z,3.00
2023-02-26T23:29:58.416Z,2.86
2023-02-26T23:31:01.696Z,3.00
2023-02-26T23:32:04.878Z,4.00
2023-02-26T23:33:08.093Z,3.57
2023-02-26T23:34:11.269Z,3.86
2023-02-26T23:35:14.239Z,3.71
2023-02-26T23:36:18.711Z,2.57
2023-02-26T23:37:21.719Z,3.00
2023-02-26T23:38:24.902Z,4.57
2023-02-26T23:39:27.980Z,3.29
2023-02-26T23:40:31.375Z,2.86
2023-02-26T23:41:34.875Z,2.14
2023-02-26T23:42:37.997Z,2.86
2023-02-26T23:43:41.476Z,3.00
2023-02-26T23:44:45.160Z,3.50
2023-02-26T23:45:48.441Z,3.29
2023-02-26T23:46:51.894Z,2.33
2023-02-26T23:47:55.393Z,2.50
2023-02-26T23:48:58.777Z,3.00
2023-02-26T23:50:02.158Z,3.00
2023-02-26T23:51:05.496Z,3.14
2023-02-26T23:52:08.730Z,3.29
2023-02-26T23:53:11.919Z,2.83
2023-02-26T23:54:15.287Z,2.00
2023-02-26T23:55:18.959Z,3.29
2023-02-26T23:56:22.363Z,3.00
2023-02-26T23:57:25.892Z,1.62
2023-02-26T23:58:28.941Z,2.00
2023-02-26T23:59:32.340Z,2.29
